createdAt,value
2022-12-04T00:00:37.617Z,101832.16
2022-12-04T00:03:05.353Z,101830.41
2022-12-04T00:05:32.849Z,101832.16
2022-12-04T00:08:00.509Z,101829.59
2022-12-04T00:10:28.181Z,101831.28
2022-12-04T00:12:56.975Z,101828.69
2022-12-04T00:15:25.933Z,101829.56
2022-12-04T00:17:54.399Z,101836.41
2022-12-04T00:20:22.930Z,101827.84
2022-12-04T00:22:50.498Z,101830.41
2022-12-04T00:25:18.257Z,101837.28
2022-12-04T00:27:45.648Z,101830.44
2022-12-04T00:30:15.084Z,101831.28
2022-12-04T00:32:51.743Z,101833.84
2022-12-04T00:35:19.203Z,101823.56
2022-12-04T00:37:46.716Z,101819.28
2022-12-04T00:40:14.785Z,101821.84
2022-12-04T00:42:42.245Z,101809.84
2022-12-04T00:45:10.200Z,101827.00
2022-12-04T00:47:38.960Z,101826.13
2022-12-04T00:50:07.787Z,101824.44
2022-12-04T00:52:35.257Z,101820.13
2022-12-04T00:55:02.710Z,101819.28
2022-12-04T00:57:30.162Z,101813.25
2022-12-04T00:59:57.786Z,101824.41
2022-12-04T01:02:25.526Z,101809.84
2022-12-04T01:04:54.320Z,101811.56
2022-12-04T01:07:21.756Z,101822.69
2022-12-04T01:09:49.207Z,101822.69
2022-12-04T01:12:20.764Z,101826.09
2022-12-04T01:14:48.670Z,101820.97
2022-12-04T01:17:16.102Z,101833.81
2022-12-04T01:19:43.530Z,101824.44
2022-12-04T01:22:12.290Z,101830.41
2022-12-04T01:24:39.788Z,101820.97
2022-12-04T01:27:07.225Z,101827.81
2022-12-04T01:29:34.927Z,101823.53
2022-12-04T01:32:02.421Z,101823.53
2022-12-04T01:34:30.006Z,101819.25
2022-12-04T01:36:57.459Z,101812.41
2022-12-04T01:39:26.185Z,101809.81
2022-12-04T01:41:53.612Z,101802.97
2022-12-04T01:44:23.098Z,101796.97
2022-12-04T01:46:52.780Z,101796.13
2022-12-04T01:49:24.575Z,101802.13
2022-12-04T01:51:57.033Z,101809.84
2022-12-04T01:54:30.954Z,101807.25
2022-12-04T01:57:03.212Z,101813.25
2022-12-04T01:59:34.438Z,101796.97
2022-12-04T02:02:06.333Z,101799.56
2022-12-04T02:04:34.768Z,101802.13
2022-12-04T02:07:02.305Z,101797.84
2022-12-04T02:09:31.791Z,101798.72
2022-12-04T02:12:07.321Z,101791.84
2022-12-04T02:14:45.443Z,101785.88
2022-12-04T02:17:20.604Z,101789.28
2022-12-04T02:20:09.634Z,101779.84
2022-12-04T02:22:58.112Z,101786.69
2022-12-04T02:25:32.799Z,101773.88
2022-12-04T02:28:10.328Z,101785.84
2022-12-04T02:30:42.073Z,101779.00
2022-12-04T02:33:18.275Z,101767.88
2022-12-04T02:35:50.352Z,101771.25
2022-12-04T02:38:23.280Z,101772.09
2022-12-04T02:40:55.424Z,101768.69
2022-12-04T02:43:26.840Z,101765.28
2022-12-04T02:46:00.442Z,101768.69
2022-12-04T02:48:32.415Z,101756.69
2022-12-04T02:51:02.784Z,101751.53
2022-12-04T02:53:34.793Z,101750.69
2022-12-04T02:56:07.237Z,101743.84
2022-12-04T02:58:42.127Z,101746.41
2022-12-04T03:01:19.587Z,101748.97
2022-12-04T03:03:53.917Z,101741.25
2022-12-04T03:06:24.107Z,101743.84
2022-12-04T03:08:57.050Z,101734.44
2022-12-04T03:11:25.802Z,101735.25
2022-12-04T03:13:58.468Z,101737.84
2022-12-04T03:16:32.195Z,101736.13
2022-12-04T03:19:04.633Z,101748.13
2022-12-04T03:21:37.960Z,101737.00
2022-12-04T03:24:12.990Z,101737.84
2022-12-04T03:26:45.989Z,101743.00
2022-12-04T03:29:19.434Z,101745.53
2022-12-04T03:31:52.094Z,101731.84
2022-12-04T03:34:27.091Z,101734.41
2022-12-04T03:36:58.586Z,101729.28
2022-12-04T03:39:31.545Z,101740.41
2022-12-04T03:42:02.566Z,101745.56
2022-12-04T03:44:39.235Z,101737.00
2022-12-04T03:47:11.266Z,101736.13
2022-12-04T03:49:47.956Z,101737.81
2022-12-04T03:52:21.957Z,101737.81
2022-12-04T03:54:53.491Z,101747.19
2022-12-04T03:57:26.000Z,101733.53
2022-12-04T04:00:01.288Z,101741.22
2022-12-04T04:02:36.106Z,101748.94
2022-12-04T04:05:09.182Z,101738.63
2022-12-04T04:07:42.637Z,101731.78
2022-12-04T04:10:15.395Z,101724.06
2022-12-04T04:13:07.872Z,101718.06
2022-12-04T04:15:58.296Z,101726.63
2022-12-04T04:18:57.193Z,101736.03
2022-12-04T04:21:55.421Z,101726.59
2022-12-04T04:24:28.327Z,101723.19
2022-12-04T04:26:56.798Z,101721.47
2022-12-04T04:29:24.362Z,101732.63
2022-12-04T04:32:00.106Z,101719.78
2022-12-04T04:34:33.456Z,101726.59
2022-12-04T04:37:09.400Z,101730.88
2022-12-04T04:39:41.572Z,101722.34
2022-12-04T04:42:17.207Z,101728.31
2022-12-04T04:44:52.061Z,101725.75
2022-12-04T04:47:29.137Z,101728.31
2022-12-04T04:49:58.293Z,101718.03
2022-12-04T04:52:26.146Z,101720.56
2022-12-04T04:54:53.816Z,101718.00
2022-12-04T04:57:29.157Z,101722.25
2022-12-04T04:59:57.055Z,101723.97
2022-12-04T05:02:27.819Z,101720.53
2022-12-04T05:04:56.442Z,101721.38
2022-12-04T05:07:24.108Z,101729.94
2022-12-04T05:09:51.651Z,101735.09
2022-12-04T05:12:19.091Z,101740.22
2022-12-04T05:14:47.555Z,101738.47
2022-12-04T05:17:15.524Z,101730.78
2022-12-04T05:19:57.316Z,101729.06
2022-12-04T05:22:28.744Z,101729.91
2022-12-04T05:24:56.377Z,101729.06
2022-12-04T05:27:25.787Z,101732.47
2022-12-04T05:29:54.388Z,101721.34
2022-12-04T05:32:23.061Z,101732.47
2022-12-04T05:34:52.921Z,101726.47
2022-12-04T05:37:21.819Z,101718.78
2022-12-04T05:39:49.570Z,101727.31
2022-12-04T05:42:17.233Z,101728.16
2022-12-04T05:44:44.716Z,101737.56
2022-12-04T05:47:12.173Z,101731.53
2022-12-04T05:49:39.642Z,101748.72
2022-12-04T05:52:08.421Z,101732.41
2022-12-04T05:54:35.870Z,101735.84
2022-12-04T05:57:03.275Z,101731.53
2022-12-04T05:59:30.883Z,101732.41
2022-12-04T06:01:58.546Z,101722.13
2022-12-04T06:04:26.184Z,101728.09
2022-12-04T06:06:54.446Z,101722.13
2022-12-04T06:09:23.226Z,101718.66
2022-12-04T06:11:50.638Z,101723.81
2022-12-04T06:14:18.084Z,101722.94
2022-12-04T06:16:47.501Z,101720.34
2022-12-04T06:19:17.228Z,101732.38
2022-12-04T06:21:46.433Z,101728.06
2022-12-04T06:24:15.592Z,101723.78
2022-12-04T06:27:11.204Z,101716.06
2022-12-04T06:29:32.112Z,101716.88
2022-12-04T06:32:00.217Z,101723.72
2022-12-04T06:34:27.699Z,101711.72
2022-12-04T06:36:55.317Z,101719.44
2022-12-04T06:39:22.864Z,101712.59
2022-12-04T06:41:51.646Z,101715.16
2022-12-04T06:44:19.141Z,101725.44
2022-12-04T06:46:47.655Z,101729.69
2022-12-04T06:49:15.627Z,101720.28
2022-12-04T06:51:43.025Z,101710.84
2022-12-04T06:54:11.289Z,101717.69
2022-12-04T06:56:38.676Z,101715.16
2022-12-04T06:59:07.396Z,101711.69
2022-12-04T07:01:35.888Z,101715.97
2022-12-04T07:04:04.646Z,101727.09
2022-12-04T07:06:34.603Z,101727.97
2022-12-04T07:09:05.736Z,101723.66
2022-12-04T07:11:34.104Z,101728.81
2022-12-04T07:14:02.073Z,101718.53
2022-12-04T07:16:36.692Z,101723.66
2022-12-04T07:19:10.417Z,101714.22
2022-12-04T07:21:38.000Z,101708.25
2022-12-04T07:24:06.023Z,101712.50
2022-12-04T07:26:33.743Z,101716.78
2022-12-04T07:29:01.469Z,101714.19
2022-12-04T07:31:31.863Z,101717.63
2022-12-04T07:34:00.006Z,101713.34
2022-12-04T07:36:28.589Z,101722.75
2022-12-04T07:38:56.726Z,101716.75
2022-12-04T07:41:24.946Z,101715.91
2022-12-04T07:43:55.450Z,101723.59
2022-12-04T07:46:27.539Z,101716.72
2022-12-04T07:48:58.557Z,101725.25
2022-12-04T07:51:29.839Z,101729.56
2022-12-04T07:54:03.113Z,101727.84
2022-12-04T07:56:31.996Z,101731.25
2022-12-04T07:59:00.519Z,101736.41
2022-12-04T08:01:28.655Z,101746.69
2022-12-04T08:04:00.075Z,101736.38
2022-12-04T08:06:30.043Z,101732.94
2022-12-04T08:08:58.384Z,101743.25
2022-12-04T08:11:27.708Z,101730.34
2022-12-04T08:13:56.830Z,101728.63
2022-12-04T08:16:26.227Z,101730.34
2022-12-04T08:18:55.130Z,101732.09
2022-12-04T08:21:28.207Z,101744.06
2022-12-04T08:23:58.029Z,101740.63
2022-12-04T08:26:28.922Z,101751.75
2022-12-04T08:28:58.438Z,101731.16
2022-12-04T08:31:29.677Z,101735.44
2022-12-04T08:34:00.547Z,101732.00
2022-12-04T08:36:31.416Z,101733.72
2022-12-04T08:39:02.124Z,101738.00
2022-12-04T08:41:31.737Z,101742.25
2022-12-04T08:44:01.237Z,101743.97
2022-12-04T08:46:31.300Z,101738.81
2022-12-04T08:49:00.109Z,101743.13
2022-12-04T08:51:34.689Z,101739.66
2022-12-04T08:54:05.495Z,101742.22
2022-12-04T08:56:34.322Z,101746.50
2022-12-04T08:59:03.135Z,101732.75
2022-12-04T09:01:31.338Z,101728.47
2022-12-04T09:03:59.711Z,101732.75
2022-12-04T09:06:29.581Z,101727.56
2022-12-04T09:08:58.074Z,101734.44
2022-12-04T09:11:27.652Z,101739.56
2022-12-04T09:13:55.885Z,101744.72
2022-12-04T09:16:25.901Z,101749.00
2022-12-04T09:18:54.507Z,101749.84
2022-12-04T09:21:24.250Z,101754.09
2022-12-04T09:23:53.722Z,101756.66
2022-12-04T09:26:24.803Z,101754.06
2022-12-04T09:28:54.399Z,101755.78
2022-12-04T09:31:23.313Z,101764.31
2022-12-04T09:33:51.217Z,101753.16
2022-12-04T09:36:19.333Z,101752.25
2022-12-04T09:38:49.996Z,101748.81
2022-12-04T09:41:31.940Z,101748.81
2022-12-04T09:44:04.489Z,101740.22
2022-12-04T09:46:37.692Z,101733.34
2022-12-04T09:49:11.650Z,101725.59
2022-12-04T09:51:42.348Z,101739.31
2022-12-04T09:54:17.246Z,101727.28
2022-12-04T09:56:55.395Z,101724.69
2022-12-04T09:59:26.954Z,101720.41
2022-12-04T10:02:02.396Z,101714.38
2022-12-04T10:04:33.544Z,101716.91
2022-12-04T10:07:09.061Z,101708.31
2022-12-04T10:09:44.071Z,101710.84
2022-12-04T10:12:25.571Z,101713.44
2022-12-04T10:15:08.845Z,101716.81
2022-12-04T10:39:56.533Z,101692.66
2022-12-04T10:45:59.210Z,101693.44
2022-12-04T10:48:48.645Z,101683.13
2022-12-04T10:51:23.254Z,101671.94
2022-12-04T10:54:10.349Z,101668.44
2022-12-04T10:57:19.045Z,101673.59
2022-12-04T10:59:58.175Z,101666.72
2022-12-04T11:06:04.985Z,101663.22
2022-12-04T11:15:20.421Z,101670.91
2022-12-04T11:18:36.899Z,101667.47
2022-12-04T11:39:50.534Z,101659.56
2022-12-04T11:42:27.206Z,101660.44
2022-12-04T12:16:06.638Z,101632.78
2022-12-04T12:18:49.912Z,101630.19
2022-12-04T12:21:29.522Z,101632.78
2022-12-04T12:24:11.736Z,101629.28
2022-12-04T12:26:48.005Z,101618.13
2022-12-04T12:29:28.006Z,101623.31
2022-12-04T12:32:15.022Z,101626.72
2022-12-04T12:34:45.740Z,101628.44
2022-12-04T12:37:23.192Z,101623.28
2022-12-04T12:40:00.806Z,101624.13
2022-12-04T12:42:38.140Z,101636.13
2022-12-04T12:45:19.385Z,101627.53
2022-12-04T12:47:55.377Z,101637.81
2022-12-04T12:50:36.479Z,101638.69
2022-12-04T12:53:12.833Z,101619.75
2022-12-04T12:55:44.428Z,101616.34
2022-12-04T12:58:16.982Z,101631.78
2022-12-04T13:00:49.273Z,101639.47
2022-12-04T13:03:30.382Z,101629.16
2022-12-04T13:09:00.515Z,101637.72
2022-12-04T13:11:34.298Z,101638.56
2022-12-04T13:16:50.943Z,101621.34
2022-12-04T13:19:38.504Z,101626.50
2022-12-04T13:22:18.816Z,101620.47
2022-12-04T13:27:50.889Z,101619.59
2022-12-04T13:30:21.412Z,101617.88
2022-12-04T13:33:14.075Z,101611.88
2022-12-04T13:36:00.670Z,101605.78
2022-12-04T13:38:55.135Z,101591.19
2022-12-04T13:41:35.310Z,101592.84
2022-12-04T13:44:07.341Z,101577.38
2022-12-04T13:46:43.836Z,101579.97
2022-12-04T13:55:30.603Z,101580.84
2022-12-04T13:58:01.136Z,101579.91
2022-12-04T14:00:32.897Z,101573.91
2022-12-04T14:03:05.403Z,101572.19
2022-12-04T14:05:42.936Z,101573.91
2022-12-04T14:08:25.640Z,101581.69
2022-12-04T14:11:02.644Z,101572.22
2022-12-04T14:13:43.423Z,101576.53
2022-12-04T14:16:22.457Z,101580.84
2022-12-04T14:18:52.584Z,101596.31
2022-12-04T14:21:20.724Z,101592.00
2022-12-04T14:23:55.914Z,101590.25
2022-12-04T14:26:49.029Z,101588.56
2022-12-04T14:29:36.784Z,101583.44
2022-12-04T14:32:10.362Z,101589.44
2022-12-04T14:34:39.852Z,101584.25
2022-12-04T14:37:08.494Z,101584.25
2022-12-04T14:39:44.231Z,101579.94
2022-12-04T14:42:16.379Z,101583.41
2022-12-04T14:44:46.924Z,101586.84
2022-12-04T14:47:28.358Z,101585.97
2022-12-04T14:50:12.657Z,101585.97
2022-12-04T14:52:46.637Z,101574.75
2022-12-04T14:55:27.325Z,101579.91
2022-12-04T14:58:00.611Z,101565.34
2022-12-04T15:00:30.137Z,101575.66
2022-12-04T15:03:04.591Z,101579.06
2022-12-04T15:05:34.251Z,101564.44
2022-12-04T15:08:06.148Z,101566.16
2022-12-04T15:10:54.666Z,101568.72
2022-12-04T15:13:30.749Z,101565.28
2022-12-04T15:16:02.956Z,101566.16
2022-12-04T15:18:34.269Z,101566.16
2022-12-04T15:21:13.121Z,101572.16
2022-12-04T15:23:46.666Z,101579.03
2022-12-04T15:26:20.761Z,101575.63
2022-12-04T15:28:52.505Z,101575.63
2022-12-04T15:31:23.734Z,101580.78
2022-12-04T15:33:54.228Z,101578.22
2022-12-04T15:36:37.906Z,101580.78
2022-12-04T15:39:06.549Z,101581.63
2022-12-04T15:41:37.575Z,101573.91
2022-12-04T15:44:25.437Z,101573.06
2022-12-04T15:46:56.321Z,101583.38
2022-12-04T15:49:27.326Z,101573.06
2022-12-04T15:52:07.170Z,101574.75
2022-12-04T15:54:36.437Z,101574.69
2022-12-04T15:57:08.387Z,101573.88
2022-12-04T15:59:36.957Z,101577.31
2022-12-04T16:02:09.813Z,101567.81
2022-12-04T16:04:43.978Z,101574.69
2022-12-04T16:07:22.277Z,101578.09
2022-12-04T16:10:02.635Z,101587.53
2022-12-04T16:12:33.718Z,101581.50
2022-12-04T16:15:02.430Z,101590.91
2022-12-04T16:17:40.110Z,101585.75
2022-12-04T16:20:09.548Z,101582.31
2022-12-04T16:22:40.350Z,101582.28
2022-12-04T16:25:15.894Z,101578.84
2022-12-04T16:27:46.385Z,101590.00
2022-12-04T16:30:15.830Z,101592.53
2022-12-04T16:32:43.680Z,101581.38
2022-12-04T16:35:19.336Z,101575.38
2022-12-04T16:37:50.400Z,101576.19
2022-12-04T16:40:18.836Z,101570.19
2022-12-04T16:42:48.220Z,101573.56
2022-12-04T16:45:24.036Z,101573.53
2022-12-04T16:47:52.745Z,101572.69
2022-12-04T16:50:21.497Z,101575.28
2022-12-04T16:52:52.898Z,101568.38
2022-12-04T16:55:23.764Z,101581.25
2022-12-04T16:58:02.922Z,101571.78
2022-12-04T17:00:51.454Z,101566.63
2022-12-04T17:03:32.126Z,101576.94
2022-12-04T17:06:05.982Z,101573.50
2022-12-04T17:09:19.138Z,101563.19
2022-12-04T17:11:53.623Z,101568.28
2022-12-04T17:14:23.320Z,101568.28
2022-12-04T17:17:01.122Z,101567.41
2022-12-04T17:19:40.401Z,101569.09
2022-12-04T17:22:14.472Z,101572.47
2022-12-04T17:24:49.073Z,101569.88
2022-12-04T17:27:17.449Z,101574.19
2022-12-04T17:29:46.310Z,101575.03
2022-12-04T17:32:14.022Z,101579.28
2022-12-04T17:34:41.911Z,101571.59
2022-12-04T17:37:09.411Z,101574.97
2022-12-04T17:39:36.935Z,101558.66
2022-12-04T17:42:04.699Z,101566.41
2022-12-04T17:44:32.124Z,101568.94
2022-12-04T17:47:00.946Z,101572.34
2022-12-04T17:49:28.448Z,101560.28
2022-12-04T17:51:55.942Z,101557.69
2022-12-04T17:54:23.785Z,101562.81
2022-12-04T17:56:57.432Z,101561.13
2022-12-04T17:59:25.362Z,101567.94
2022-12-04T18:01:53.150Z,101555.03
2022-12-04T18:04:22.169Z,101556.75
2022-12-04T18:06:49.647Z,101564.50
2022-12-04T18:09:18.107Z,101555.91
2022-12-04T18:11:48.406Z,101549.84
2022-12-04T18:14:17.987Z,101553.31
2022-12-04T18:16:47.299Z,101558.47
2022-12-04T18:19:17.232Z,101555.81
2022-12-04T18:21:46.073Z,101553.22
2022-12-04T18:24:14.015Z,101554.09
2022-12-04T18:26:43.544Z,101560.94
2022-12-04T18:29:14.942Z,101556.66
2022-12-04T18:31:42.615Z,101557.50
2022-12-04T18:34:11.328Z,101553.16
2022-12-04T18:36:40.158Z,101556.63
2022-12-04T18:39:13.722Z,101552.31
2022-12-04T18:41:41.895Z,101556.63
2022-12-04T18:44:09.627Z,101555.72
2022-12-04T18:46:37.169Z,101548.00
2022-12-04T18:49:05.258Z,101559.19
2022-12-04T18:51:34.641Z,101548.00
2022-12-04T18:54:04.773Z,101567.75
2022-12-04T18:56:35.294Z,101557.44
2022-12-04T18:59:05.504Z,101561.72
2022-12-04T19:01:33.173Z,101555.69
2022-12-04T19:04:02.616Z,101561.72
2022-12-04T19:06:31.737Z,101565.16
2022-12-04T19:09:00.219Z,101558.25
2022-12-04T19:11:28.399Z,101553.91
2022-12-04T19:13:58.716Z,101572.81
2022-12-04T19:16:27.011Z,101569.38
2022-12-04T19:18:54.543Z,101558.19
2022-12-04T19:21:22.152Z,101559.88
2022-12-04T19:23:53.041Z,101554.72
2022-12-04T19:26:20.526Z,101560.69
2022-12-04T19:28:48.028Z,101562.44
2022-12-04T19:31:17.727Z,101564.03
2022-12-04T19:33:45.258Z,101565.81
2022-12-04T19:36:14.342Z,101562.34
2022-12-04T19:38:42.616Z,101570.03
2022-12-04T19:41:12.698Z,101583.81
2022-12-04T19:43:41.742Z,101574.34
2022-12-04T19:46:11.365Z,101577.75
2022-12-04T19:48:40.193Z,101567.44
2022-12-04T19:51:11.140Z,101574.31
2022-12-04T19:53:41.329Z,101569.09
2022-12-04T19:56:11.398Z,101564.78
2022-12-04T19:58:38.977Z,101561.28
2022-12-04T20:01:08.491Z,101565.59
2022-12-04T20:03:36.637Z,101564.72
2022-12-04T20:06:07.068Z,101569.00
2022-12-04T20:08:35.197Z,101556.09
2022-12-04T20:11:03.980Z,101564.66
2022-12-04T20:13:31.518Z,101562.91
2022-12-04T20:16:02.530Z,101557.75
2022-12-04T20:18:30.026Z,101556.88
2022-12-04T20:20:58.147Z,101551.69
2022-12-04T20:23:27.857Z,101549.94
2022-12-04T20:25:55.888Z,101551.66
2022-12-04T20:28:23.626Z,101542.19
2022-12-04T20:30:51.197Z,101538.75
2022-12-04T20:33:18.695Z,101538.72
2022-12-04T20:35:46.191Z,101542.16
2022-12-04T20:38:14.192Z,101536.97
2022-12-04T20:40:42.982Z,101531.00
2022-12-04T20:43:10.450Z,101545.53
2022-12-04T20:45:37.867Z,101536.97
2022-12-04T20:48:05.772Z,101537.78
2022-12-04T20:50:33.433Z,101536.94
2022-12-04T20:53:00.860Z,101543.84
2022-12-04T20:55:28.343Z,101543.84
2022-12-04T20:57:57.613Z,101535.22
2022-12-04T21:00:25.138Z,101547.28
2022-12-04T21:02:52.643Z,101544.63
2022-12-04T21:05:20.798Z,101550.63
2022-12-04T21:07:48.347Z,101554.97
2022-12-04T21:10:15.963Z,101536.06
2022-12-04T21:13:01.266Z,101537.72
2022-12-04T21:15:47.920Z,101544.59
2022-12-04T21:18:15.591Z,101545.47
2022-12-04T21:20:43.142Z,101536.06
2022-12-04T21:23:10.567Z,101535.22
2022-12-04T21:25:38.302Z,101531.81
2022-12-04T21:28:05.977Z,101527.50
2022-12-04T21:30:34.798Z,101534.38
2022-12-04T21:33:02.494Z,101524.06
2022-12-04T21:35:29.907Z,101536.09
2022-12-04T21:37:57.713Z,101529.19
2022-12-04T21:40:25.200Z,101530.91
2022-12-04T21:42:52.735Z,101530.91
2022-12-04T21:45:20.337Z,101532.56
2022-12-04T21:47:49.152Z,101531.72
2022-12-04T21:50:17.001Z,101533.41
2022-12-04T21:52:44.888Z,101527.41
2022-12-04T21:55:12.353Z,101528.25
2022-12-04T21:57:39.848Z,101534.28
2022-12-04T22:00:08.857Z,101528.25
2022-12-04T22:02:37.983Z,101514.50
2022-12-04T22:05:07.337Z,101521.41
2022-12-04T22:07:34.929Z,101524.00
2022-12-04T22:10:08.638Z,101515.41
2022-12-04T22:12:55.677Z,101524.81
2022-12-04T22:15:23.196Z,101517.09
2022-12-04T22:17:50.675Z,101506.75
2022-12-04T22:20:19.504Z,101518.78
2022-12-04T22:22:47.056Z,101511.06
2022-12-04T22:25:15.165Z,101510.19
2022-12-04T22:27:42.665Z,101517.06
2022-12-04T22:30:12.906Z,101514.50
2022-12-04T22:32:40.432Z,101499.84
2022-12-04T22:35:08.554Z,101511.06
2022-12-04T22:37:43.933Z,101505.88
2022-12-04T22:40:13.061Z,101504.16
2022-12-04T22:42:40.537Z,101504.16
2022-12-04T22:45:08.696Z,101499.81
2022-12-04T22:47:36.400Z,101502.41
2022-12-04T22:50:04.102Z,101498.13
2022-12-04T22:52:32.055Z,101486.91
2022-12-04T22:55:00.782Z,101489.47
2022-12-04T22:57:29.062Z,101488.63
2022-12-04T22:59:56.858Z,101479.13
2022-12-04T23:02:24.550Z,101487.75
2022-12-04T23:04:52.110Z,101474.88
2022-12-04T23:07:19.624Z,101474.00
2022-12-04T23:09:47.069Z,101482.63
2022-12-04T23:12:16.230Z,101478.31
2022-12-04T23:14:43.662Z,101476.56
2022-12-04T23:17:11.220Z,101468.81
2022-12-04T23:19:38.830Z,101478.31
2022-12-04T23:22:06.294Z,101471.44
2022-12-04T23:24:37.931Z,101474.88
2022-12-04T23:27:05.413Z,101480.03
2022-12-04T23:29:52.915Z,101469.69
2022-12-04T23:32:21.019Z,101479.13
2022-12-04T23:34:48.506Z,101484.31
2022-12-04T23:37:24.908Z,101473.97
2022-12-04T23:39:52.802Z,101467.94
2022-12-04T23:42:20.290Z,101468.78
2022-12-04T23:44:49.055Z,101475.72
2022-12-04T23:47:16.596Z,101480.03
2022-12-04T23:49:44.193Z,101469.75
2022-12-04T23:52:11.708Z,101473.19
2022-12-04T23:54:39.243Z,101468.88
2022-12-04T23:57:06.895Z,101466.38
2022-12-04T23:59:34.752Z,101469.84
